Flugplatz Herzogenaurach

Für EDQH sind keine METAR/TAF Berichte vorhanden.
Es werden die Flugwettermeldungen vom Flugplatz Nuremberg in 17 km Entfernung angezeigt.

Bericht für EDDN

vom 29.09. um 14:20 UTC

Wind 4 kt aus 130°

Sichtweite 10 km oder mehr

gering bewölkt in 2500 ft

bedeckt in 4800 ft

Temperatur 10.0°C

Taupunkt 8.0°C

Luftfeuchtigkeit 87%

Luftdruck 1003 hPa

keine wesentliche Wetteränderung innerhalb den nächsten 2 Stunden zu erwarten

EDDN 291420Z AUTO 13004KT 9999 FEW025 OVC048 10/08 Q1003 NOSIG

Prognose für EDDN

vom 29.09. um 11:00 UTC

Zwischen 12:00 UTC und 16:00 UTC

Wind 5 kt aus 120°

Sichtweite 10 km oder mehr

aufgelockert bewölkt in 2000 ft


Zwischen 16:00 und 18:00 UTC übergehend zu

variable Windrichtung mit 3 kt

Sichtweite 10 km oder mehr

aufgelockert bewölkt in 2000 ft


Am 30.09. zwischen 02:00 UTC und 06:00 UTC zeitweise mit einer Wahrscheinlichkeit von 30%

Sichtweite 2000 m

Nebelschwaden

TAF EDDN 291100Z 2912/3012 12005KT 9999 SCT020 BECMG 2916/2918 VRB03KT PROB30 TEMPO 3002/3006 2000 BCFG
Impressum